Time;durP1;ratioP1;P1;durP2;ratioP2;P2;SDS_P1;SDS_P2;PMS_P1;PMS_P2;Temp;Humidity;BMP_temperature;BMP_pressure;BME280_temperature;BME280_humidity;BME280_pressure;Samples;Min_cycle;Max_cycle;Signal;HPM_P1;HPM_P2
2022/03/01 00:01:02;;;;;;;;;;;22.60;83.90;;;;;;4943000;28;97302;-44
2022/03/01 00:03:34;;;;;;;4.07;3.78;;;22.70;83.80;;;;;;4949724;28;95619;-40
2022/03/01 00:06:03;;;;;;;6.35;3.70;;;22.90;83.50;;;;;;4948533;28;95328;-45
2022/03/01 00:08:34;;;;;;;4.10;3.80;;;22.90;83.30;;;;;;4947267;28;95312;-44
2022/03/01 00:11:06;;;;;;;5.55;4.20;;;22.90;82.70;;;;;;4948869;28;96134;-44
2022/03/01 00:13:37;;;;;;;5.50;4.20;;;22.90;82.00;;;;;;4947296;28;95515;-42
2022/03/01 00:16:07;;;;;;;3.42;3.15;;;22.90;82.10;;;;;;4943019;28;95953;-44
2022/03/01 00:18:39;;;;;;;6.50;3.67;;;23.00;82.00;;;;;;4955650;28;96038;-44
2022/03/01 00:21:08;;;;;;;3.72;3.13;;;23.00;82.20;;;;;;4957419;28;95972;-44
2022/03/01 00:23:40;;;;;;;4.32;3.53;;;23.00;82.30;;;;;;4956260;28;95955;-43
2022/03/01 00:26:13;;;;;;;3.97;3.50;;;23.00;81.90;;;;;;4955662;28;96069;-44
2022/03/01 00:28:52;;;;;;;3.63;3.33;;;23.00;82.30;;;;;;4954512;28;95843;-45
2022/03/01 00:31:24;;;;;;;3.85;3.55;;;23.10;82.50;;;;;;4948257;28;96285;-44
2022/03/01 00:33:56;;;;;;;4.53;3.00;;;23.00;82.20;;;;;;4954544;28;96359;-43
2022/03/01 00:36:27;;;;;;;6.00;3.33;;;23.00;82.20;;;;;;4953820;28;95364;-43
2022/03/01 00:38:57;;;;;;;4.07;3.58;;;23.00;82.70;;;;;;4953867;28;95806;-45
2022/03/01 00:41:28;;;;;;;3.33;3.05;;;23.00;82.60;;;;;;4937652;28;97052;-45
2022/03/01 00:43:59;;;;;;;3.60;3.30;;;23.00;82.40;;;;;;4948756;28;96098;-44
2022/03/01 00:46:30;;;;;;;4.03;3.63;;;23.00;82.30;;;;;;4945855;28;95986;-44
2022/03/01 00:49:02;;;;;;;3.78;3.35;;;23.00;82.40;;;;;;4952272;28;96807;-41
2022/03/01 00:51:34;;;;;;;5.82;3.17;;;23.00;82.50;;;;;;4951095;28;96640;-41
2022/03/01 00:54:08;;;;;;;3.78;3.22;;;22.90;82.10;;;;;;4955041;28;95653;-43
2022/03/01 00:56:39;;;;;;;7.88;3.70;;;22.90;82.20;;;;;;4951539;28;95653;-44
2022/03/01 00:59:10;;;;;;;3.53;3.22;;;22.90;82.00;;;;;;4953069;28;96044;-43
2022/03/01 01:01:41;;;;;;;5.87;3.57;;;22.90;82.10;;;;;;4947787;28;96082;-43
2022/03/01 01:04:12;;;;;;;4.15;3.42;;;22.90;82.10;;;;;;4951478;28;96043;-42
2022/03/01 01:06:44;;;;;;;4.25;3.30;;;22.90;82.00;;;;;;4953649;28;95815;-45
2022/03/01 01:09:15;;;;;;;3.58;3.28;;;23.00;82.10;;;;;;4953950;28;95980;-45
2022/03/01 01:11:45;;;;;;;;;;;23.00;81.90;;;;;;4953754;28;96044;-44
2022/03/01 01:14:17;;;;;;;4.35;3.28;;;23.00;81.60;;;;;;4956321;28;96213;-43
2022/03/01 01:16:48;;;;;;;3.13;2.83;;;22.90;81.50;;;;;;4949105;28;96046;-43
2022/03/01 01:19:19;;;;;;;3.70;3.30;;;23.00;81.60;;;;;;4952838;28;95701;-43
2022/03/01 01:24:39;;;;;;;3.72;2.72;;;23.00;81.60;;;;;;4954099;28;95984;-42
2022/03/01 01:27:11;;;;;;;9.73;3.70;;;23.00;81.80;;;;;;4954721;28;95803;-42
2022/03/01 01:29:42;;;;;;;8.57;3.60;;;22.90;81.70;;;;;;4955248;28;95868;-43
2022/03/01 01:32:13;;;;;;;6.63;3.67;;;22.90;81.80;;;;;;4946732;28;96428;-44
2022/03/01 01:34:45;;;;;;;4.50;3.70;;;22.90;81.90;;;;;;4952910;28;95755;-44
2022/03/01 01:37:18;;;;;;;17.25;3.40;;;23.00;81.90;;;;;;4953088;28;95951;-44
2022/03/01 01:39:49;;;;;;;5.03;3.55;;;23.00;81.80;;;;;;4949041;28;97539;-43
2022/03/01 01:42:20;;;;;;;7.13;3.83;;;23.00;81.90;;;;;;4941086;28;96991;-42
2022/03/01 01:44:51;;;;;;;5.22;3.45;;;23.00;82.00;;;;;;4953739;28;95318;-43
2022/03/01 01:47:43;;;;;;;3.83;3.45;;;23.00;82.20;;;;;;4953314;28;96491;-44
2022/03/01 01:50:15;;;;;;;3.65;3.17;;;23.00;82.20;;;;;;4955999;28;95272;-45
2022/03/01 01:52:48;;;;;;;3.75;3.45;;;23.00;82.40;;;;;;4954406;28;95879;-45
2022/03/01 01:55:20;;;;;;;5.28;3.80;;;23.00;82.10;;;;;;4954886;28;96330;-44
2022/03/01 01:57:58;;;;;;;3.30;3.10;;;23.10;82.00;;;;;;4955561;28;95817;-43
2022/03/01 02:00:30;;;;;;;4.63;3.30;;;23.10;81.90;;;;;;4949424;28;96724;-43
2022/03/01 02:03:01;;;;;;;4.90;3.95;;;23.20;82.20;;;;;;4953602;28;103461;-44
2022/03/01 02:05:32;;;;;;;3.40;3.00;;;23.10;81.90;;;;;;4953789;28;95626;-43
2022/03/01 02:08:02;;;;;;;6.40;3.30;;;23.20;82.00;;;;;;4954342;28;96319;-45
2022/03/01 02:10:32;;;;;;;5.25;3.53;;;23.20;81.90;;;;;;4952851;28;95829;-44
2022/03/01 02:13:03;;;;;;;5.30;3.85;;;23.20;78.90;;;;;;4954260;28;96457;-45
2022/03/01 02:15:35;;;;;;;4.13;3.73;;;23.30;79.10;;;;;;4947661;28;95860;-45
2022/03/01 02:18:08;;;;;;;4.47;3.40;;;23.30;81.70;;;;;;4953593;28;95930;-45
2022/03/01 02:20:38;;;;;;;3.88;3.40;;;23.30;81.70;;;;;;4954402;28;95942;-42
2022/03/01 02:23:08;;;;;;;3.47;3.17;;;23.30;81.60;;;;;;4954195;28;96401;-45
2022/03/01 02:25:41;;;;;;;3.58;3.28;;;23.40;81.60;;;;;;4951521;28;96590;-44
2022/03/01 02:28:12;;;;;;;4.03;3.70;;;23.40;81.60;;;;;;4951187;28;96440;-45
2022/03/01 02:30:44;;;;;;;3.83;3.45;;;23.40;81.80;;;;;;4945454;28;98095;-45
2022/03/01 02:33:16;;;;;;;4.03;3.30;;;23.40;81.80;;;;;;4953669;28;96337;-42
2022/03/01 02:35:46;;;;;;;3.50;3.05;;;23.40;81.90;;;;;;4953046;28;96116;-46
2022/03/01 02:38:17;;;;;;;4.05;3.55;;;23.40;81.90;;;;;;4954358;28;95828;-45
2022/03/01 02:40:47;;;;;;;;;;;23.50;82.30;;;;;;4944490;28;96323;-45
2022/03/01 02:43:19;;;;;;;5.60;3.20;;;23.60;81.80;;;;;;4941702;28;95960;-43
2022/03/01 02:45:50;;;;;;;3.83;3.53;;;23.60;81.80;;;;;;4947291;28;97938;-46
2022/03/01 02:48:20;;;;;;;3.00;2.70;;;23.70;81.70;;;;;;4954726;28;95647;-45
2022/03/01 02:50:52;;;;;;;3.55;3.25;;;23.70;81.50;;;;;;4954501;28;95850;-43
2022/03/01 02:53:22;;;;;;;;;;;23.80;81.50;;;;;;4954216;28;96246;-46
2022/03/01 02:55:52;;;;;;;3.50;3.03;;;23.80;81.50;;;;;;4954422;28;95725;-42
2022/03/01 02:58:22;;;;;;;4.95;3.75;;;23.90;81.30;;;;;;4953247;28;95957;-41
2022/03/01 03:00:53;;;;;;;3.75;3.13;;;23.90;81.70;;;;;;4945401;28;96142;-46
2022/03/01 03:03:25;;;;;;;3.33;3.03;;;23.90;81.50;;;;;;4951257;28;98201;-43
2022/03/01 03:05:55;;;;;;;3.42;3.22;;;24.00;81.10;;;;;;4953662;28;95728;-44
2022/03/01 03:08:25;;;;;;;3.30;2.90;;;24.10;81.30;;;;;;4952530;28;95809;-44
2022/03/01 03:10:57;;;;;;;2.90;2.60;;;24.10;81.60;;;;;;4950874;28;96797;-44
2022/03/01 03:13:29;;;;;;;3.15;2.85;;;24.10;80.90;;;;;;4954533;28;96537;-45
2022/03/01 03:16:00;;;;;;;3.10;2.83;;;24.20;80.70;;;;;;4949244;28;95790;-44
2022/03/01 03:18:32;;;;;;;2.85;2.65;;;24.20;80.70;;;;;;4956134;28;96717;-43
2022/03/01 03:21:04;;;;;;;3.30;2.95;;;24.30;80.50;;;;;;4956825;28;96173;-45
2022/03/01 03:23:35;;;;;;;2.92;2.70;;;24.30;80.30;;;;;;4956964;28;96418;-43
2022/03/01 03:26:06;;;;;;;3.22;2.92;;;24.30;80.30;;;;;;4954881;28;95668;-46
2022/03/01 03:28:38;;;;;;;2.60;2.47;;;24.40;80.00;;;;;;4956030;28;96057;-46
2022/03/01 03:31:10;;;;;;;2.58;2.38;;;24.40;79.80;;;;;;4950557;28;96365;-44
2022/03/01 03:33:41;;;;;;;2.95;2.67;;;24.40;79.80;;;;;;4954930;28;96293;-44
2022/03/01 03:36:15;;;;;;;2.40;2.20;;;24.40;79.60;;;;;;4955937;28;96860;-45
2022/03/01 03:38:46;;;;;;;2.42;2.22;;;24.50;79.50;;;;;;4971868;28;96036;-45
2022/03/01 03:41:17;;;;;;;3.10;2.20;;;24.60;79.40;;;;;;4942702;28;96896;-43
2022/03/01 03:43:48;;;;;;;;;;;24.60;78.80;;;;;;4945008;28;96768;-44
2022/03/01 03:46:20;;;;;;;2.47;1.90;;;24.60;78.80;;;;;;4950352;28;95823;-45
2022/03/01 03:48:52;;;;;;;2.42;2.08;;;24.60;78.30;;;;;;4958370;28;96016;-44
2022/03/01 03:51:27;;;;;;;3.42;2.08;;;24.60;77.00;;;;;;4958108;28;96504;-43
2022/03/01 03:53:58;;;;;;;2.40;1.95;;;24.60;76.20;;;;;;4958488;28;96571;-45
2022/03/01 03:56:29;;;;;;;5.72;1.90;;;24.60;75.50;;;;;;4952660;28;95829;-41
2022/03/01 03:59:00;;;;;;;2.88;2.35;;;24.50;75.00;;;;;;4956290;28;95774;-45
2022/03/01 04:01:32;;;;;;;3.40;1.80;;;24.50;74.80;;;;;;4950414;28;96563;-43
2022/03/01 04:04:03;;;;;;;2.58;1.75;;;24.60;74.80;;;;;;4955192;28;97853;-43
2022/03/01 04:06:34;;;;;;;2.03;1.48;;;24.60;73.80;;;;;;4953033;28;95917;-44
2022/03/01 04:09:07;;;;;;;4.28;1.70;;;24.70;73.20;;;;;;4952422;28;96623;-44
2022/03/01 04:11:38;;;;;;;2.00;1.52;;;24.80;72.90;;;;;;4951032;28;97026;-43
2022/03/01 04:14:09;;;;;;;4.07;2.00;;;24.70;72.30;;;;;;4951304;28;96834;-44
2022/03/01 04:16:42;;;;;;;2.85;1.40;;;24.70;72.70;;;;;;4942317;28;97057;-43
2022/03/01 04:19:12;;;;;;;2.58;2.15;;;24.70;71.80;;;;;;4954346;28;95820;-44
2022/03/01 04:21:43;;;;;;;2.20;1.40;;;24.80;70.00;;;;;;4953514;28;96123;-45
2022/03/01 04:24:13;;;;;;;2.87;1.27;;;24.70;70.80;;;;;;4954301;28;96530;-43
2022/03/01 04:26:45;;;;;;;1.50;1.40;;;24.70;70.20;;;;;;4956867;28;96703;-44
2022/03/01 04:29:16;;;;;;;4.03;1.95;;;24.70;70.70;;;;;;4955770;28;95825;-43
2022/03/01 04:31:48;;;;;;;3.70;1.80;;;24.70;73.90;;;;;;4951055;28;95754;-44
2022/03/01 04:34:20;;;;;;;4.32;2.33;;;24.60;76.40;;;;;;4954966;28;96802;-42
2022/03/01 04:36:51;;;;;;;5.75;2.60;;;24.20;78.00;;;;;;4954172;28;96390;-45
2022/03/01 04:39:22;;;;;;;5.35;2.78;;;23.40;80.30;;;;;;4937173;28;95391;-45
2022/03/01 04:41:54;;;;;;;4.03;2.40;;;23.30;80.40;;;;;;4936505;28;96080;-44
2022/03/01 04:44:25;;;;;;;3.38;2.20;;;23.30;81.00;;;;;;4954309;28;96790;-45
2022/03/01 04:46:57;;;;;;;3.13;1.88;;;23.40;79.70;;;;;;4947566;28;96973;-45
2022/03/01 04:49:30;;;;;;;3.63;1.52;;;23.60;78.30;;;;;;4955672;28;96016;-46
2022/03/01 04:52:01;;;;;;;3.53;1.80;;;23.60;78.00;;;;;;4956904;28;95427;-44
2022/03/01 04:54:32;;;;;;;5.00;2.72;;;23.60;77.70;;;;;;4956820;28;95697;-45
2022/03/01 04:57:03;;;;;;;3.90;1.60;;;23.70;77.90;;;;;;4955866;28;96439;-43
2022/03/01 04:59:37;;;;;;;1.55;1.40;;;23.70;77.40;;;;;;4956130;28;95696;-45
2022/03/01 05:02:10;;;;;;;3.10;1.67;;;23.90;77.00;;;;;;4951521;28;95721;-46
2022/03/01 05:04:41;;;;;;;1.73;1.63;;;24.00;76.20;;;;;;4957148;28;96750;-42
2022/03/01 05:07:18;;;;;;;4.45;1.90;;;24.10;75.60;;;;;;4955566;28;96609;-45
2022/03/01 05:09:48;;;;;;;4.55;1.60;;;24.20;75.10;;;;;;4954954;28;95944;-45
2022/03/01 05:12:19;;;;;;;2.97;1.63;;;24.20;75.20;;;;;;4955093;28;95715;-43
2022/03/01 05:14:51;;;;;;;3.33;1.30;;;24.30;74.90;;;;;;4955577;28;98104;-41
2022/03/01 05:17:22;;;;;;;1.35;1.17;;;24.30;75.00;;;;;;4949613;28;98688;-40
2022/03/01 05:19:53;;;;;;;2.00;1.80;;;24.40;74.90;;;;;;4954162;28;96601;-44
2022/03/01 05:22:23;;;;;;;2.58;1.50;;;24.50;74.60;;;;;;4956845;28;95388;-45
2022/03/01 05:24:54;;;;;;;4.28;1.60;;;24.50;74.50;;;;;;4956438;28;96939;-45
2022/03/01 05:27:25;;;;;;;2.75;1.63;;;24.50;74.00;;;;;;4956921;28;96174;-38
2022/03/01 05:29:57;;;;;;;2.55;1.55;;;24.60;73.90;;;;;;4955532;28;95772;-44
2022/03/01 05:32:28;;;;;;;1.98;1.40;;;24.70;74.40;;;;;;4950058;28;95889;-46
2022/03/01 05:34:59;;;;;;;1.52;1.23;;;24.80;74.20;;;;;;4955065;28;96372;-45
2022/03/01 05:37:30;;;;;;;1.77;1.58;;;24.90;74.10;;;;;;4953402;28;95770;-45
2022/03/01 05:40:01;;;;;;;2.63;1.60;;;24.90;74.50;;;;;;4950903;28;96879;-46
2022/03/01 05:42:32;;;;;;;2.58;1.50;;;24.90;73.80;;;;;;4939493;28;96642;-45
2022/03/01 05:45:04;;;;;;;1.45;1.35;;;25.00;73.00;;;;;;4954309;28;96915;-42
2022/03/01 05:47:36;;;;;;;3.50;1.50;;;25.00;73.10;;;;;;4949155;28;96244;-42
2022/03/01 05:50:09;;;;;;;;;;;25.00;72.80;;;;;;4955735;28;96444;-46
2022/03/01 05:52:45;;;;;;;2.25;1.58;;;25.10;73.10;;;;;;4957313;28;95863;-46
2022/03/01 05:55:17;;;;;;;1.88;1.35;;;25.10;72.70;;;;;;4955890;28;96537;-43
2022/03/01 05:57:48;;;;;;;4.03;1.30;;;25.10;71.30;;;;;;4953325;28;95995;-44
2022/03/01 06:00:21;;;;;;;1.50;1.25;;;24.90;70.50;;;;;;4947990;28;95681;-40
2022/03/01 06:02:53;;;;;;;1.73;1.30;;;24.90;70.10;;;;;;4954153;28;95787;-42
2022/03/01 06:05:29;;;;;;;1.85;1.20;;;24.90;69.80;;;;;;4956057;28;96553;-44
2022/03/01 06:08:00;;;;;;;1.88;1.40;;;24.90;69.10;;;;;;4953228;28;96468;-43
2022/03/01 06:10:31;;;;;;;1.10;1.02;;;24.90;68.50;;;;;;4955699;28;96455;-44
2022/03/01 06:13:02;;;;;;;1.50;1.33;;;25.00;65.90;;;;;;4954853;28;97648;-43
2022/03/01 06:15:33;;;;;;;1.50;1.40;;;24.90;68.40;;;;;;4949691;28;95899;-42
2022/03/01 06:18:04;;;;;;;1.75;1.15;;;24.90;68.20;;;;;;4954495;28;102848;-43
2022/03/01 06:20:34;;;;;;;;;;;24.90;68.00;;;;;;4955390;28;95737;-44
2022/03/01 06:23:05;;;;;;;1.20;1.10;;;24.80;67.40;;;;;;4954961;28;96142;-41
2022/03/01 06:25:36;;;;;;;1.65;1.25;;;24.80;68.50;;;;;;4956516;28;95895;-43
2022/03/01 06:28:08;;;;;;;1.55;1.45;;;24.80;68.70;;;;;;4953298;28;95925;-44
2022/03/01 06:30:38;;;;;;;1.35;1.08;;;24.80;67.50;;;;;;4949936;28;96489;-43
2022/03/01 06:33:09;;;;;;;2.17;1.30;;;24.80;67.00;;;;;;4955377;28;95879;-41
2022/03/01 06:35:40;;;;;;;1.35;1.30;;;24.70;67.50;;;;;;4954964;28;95889;-43
2022/03/01 06:38:11;;;;;;;1.48;1.40;;;24.70;67.30;;;;;;4956262;28;96099;-40
2022/03/01 06:40:41;;;;;;;1.50;1.40;;;24.70;67.50;;;;;;4949600;28;98628;-41
2022/03/01 06:43:20;;;;;;;1.05;1.00;;;24.70;67.90;;;;;;4944448;28;95903;-40
2022/03/01 06:45:50;;;;;;;;;;;24.70;66.80;;;;;;4951781;28;96025;-43
2022/03/01 06:48:23;;;;;;;1.30;1.20;;;24.60;66.40;;;;;;4955099;28;96040;-43
2022/03/01 06:50:54;;;;;;;2.75;1.20;;;24.60;66.10;;;;;;4969180;28;95344;-43
2022/03/01 06:53:26;;;;;;;1.70;1.35;;;24.50;66.10;;;;;;4954679;28;95948;-42
2022/03/01 06:55:57;;;;;;;1.95;1.45;;;24.50;66.10;;;;;;4954776;28;97471;-42
2022/03/01 06:58:28;;;;;;;2.13;1.90;;;24.60;65.80;;;;;;4954383;28;95972;-42
2022/03/01 07:01:01;;;;;;;3.83;2.15;;;24.50;65.70;;;;;;4948812;28;98222;-42
2022/03/01 07:03:34;;;;;;;2.80;2.47;;;24.50;65.60;;;;;;4955390;28;95675;-41
2022/03/01 07:06:04;;;;;;;4.65;3.33;;;24.50;65.80;;;;;;4954328;28;95896;-43
2022/03/01 07:08:34;;;;;;;8.10;3.97;;;24.50;66.00;;;;;;4955186;28;95889;-41
2022/03/01 07:11:06;;;;;;;6.72;4.10;;;24.50;66.20;;;;;;4954660;28;95826;-42
2022/03/01 07:13:37;;;;;;;7.35;4.32;;;24.50;66.00;;;;;;4956657;28;95937;-42
2022/03/01 07:16:08;;;;;;;8.03;3.93;;;24.50;65.90;;;;;;4950168;28;96524;-42
2022/03/01 07:18:39;;;;;;;4.90;3.72;;;24.40;65.90;;;;;;4953793;28;95676;-43
2022/03/01 07:21:10;;;;;;;4.93;3.40;;;24.50;66.10;;;;;;4954479;28;96443;-42
2022/03/01 07:23:41;;;;;;;6.15;3.55;;;24.40;66.60;;;;;;4953630;28;95366;-40
2022/03/01 07:26:12;;;;;;;9.25;3.90;;;24.40;65.90;;;;;;4952365;28;96489;-43
2022/03/01 07:28:43;;;;;;;5.38;3.10;;;24.40;66.00;;;;;;4951525;28;96850;-40
2022/03/01 07:31:14;;;;;;;6.07;3.50;;;24.40;66.20;;;;;;4928921;28;98016;-40
2022/03/01 07:33:46;;;;;;;7.70;2.92;;;24.50;62.40;;;;;;4954194;28;96038;-39
2022/03/01 07:36:19;;;;;;;5.10;3.25;;;24.40;65.60;;;;;;4952190;28;96508;-42
2022/03/01 07:38:50;;;;;;;5.40;3.08;;;24.40;65.80;;;;;;4954172;28;96241;-41
2022/03/01 07:41:21;;;;;;;3.42;2.92;;;24.40;66.10;;;;;;4938514;28;100151;-42
2022/03/01 07:43:52;;;;;;;;;;;24.40;66.20;;;;;;4944620;28;95883;-40
2022/03/01 07:46:23;;;;;;;3.60;2.50;;;24.40;66.30;;;;;;4947323;28;96589;-42
2022/03/01 07:48:53;;;;;;;;;;;24.40;66.40;;;;;;4953813;28;95856;-40
2022/03/01 07:51:24;;;;;;;4.13;2.63;;;24.40;66.30;;;;;;4954434;28;95999;-43
2022/03/01 07:53:56;;;;;;;5.10;2.97;;;24.40;66.70;;;;;;4953884;28;95803;-40
2022/03/01 07:56:26;;;;;;;3.03;1.95;;;24.40;66.70;;;;;;4950612;28;96587;-40
2022/03/01 07:58:57;;;;;;;;;;;24.40;67.10;;;;;;4950662;28;97769;-42
2022/03/01 08:01:27;;;;;;;3.10;2.60;;;24.40;68.00;;;;;;4952101;28;95995;-40
2022/03/01 08:04:00;;;;;;;3.88;2.22;;;24.40;68.10;;;;;;4955148;28;95764;-42
2022/03/01 08:06:31;;;;;;;3.65;2.40;;;24.40;68.50;;;;;;4954811;28;96085;-42
2022/03/01 08:09:06;;;;;;;4.00;2.42;;;24.40;70.60;;;;;;4954017;28;97387;-42
2022/03/01 08:11:37;;;;;;;;;;;24.40;69.40;;;;;;4955948;28;96398;-43
2022/03/01 08:14:08;;;;;;;4.43;2.22;;;24.40;69.20;;;;;;4956409;28;96162;-42
2022/03/01 08:16:39;;;;;;;3.88;2.35;;;24.40;70.00;;;;;;4942472;28;97229;-42
2022/03/01 08:19:09;;;;;;;4.15;2.50;;;24.40;69.20;;;;;;4932309;28;95781;-42
2022/03/01 08:21:39;;;;;;;4.32;2.38;;;24.40;69.50;;;;;;4934445;28;95910;-40
2022/03/01 08:24:08;;;;;;;7.63;2.83;;;24.30;69.70;;;;;;4934292;28;95952;-41
2022/03/01 08:26:40;;;;;;;;;;;24.30;69.60;;;;;;4934007;28;96490;-42
2022/03/01 08:29:12;;;;;;;3.90;2.07;;;24.30;70.40;;;;;;4934333;28;96199;-39
2022/03/01 08:31:45;;;;;;;4.93;2.05;;;24.30;70.50;;;;;;4927780;28;95830;-41
2022/03/01 08:34:16;;;;;;;3.58;2.33;;;24.20;70.70;;;;;;4932357;28;96115;-42
2022/03/01 08:36:47;;;;;;;11.13;2.97;;;24.30;71.00;;;;;;4930494;28;96401;-42
2022/03/01 08:39:18;;;;;;;;;;;24.20;72.90;;;;;;4933243;28;95695;-40
2022/03/01 08:41:53;;;;;;;5.68;2.70;;;24.20;72.00;;;;;;4918242;28;97006;-41
2022/03/01 08:44:24;;;;;;;6.25;2.13;;;24.20;72.40;;;;;;4929211;28;96506;-43
2022/03/01 08:46:57;;;;;;;6.65;1.92;;;24.20;72.20;;;;;;4941709;28;96702;-41
2022/03/01 08:49:28;;;;;;;5.85;2.28;;;24.20;72.00;;;;;;4953538;28;96489;-39
2022/03/01 08:51:59;;;;;;;4.65;2.55;;;24.20;72.20;;;;;;4951465;28;95834;-42
2022/03/01 08:54:29;;;;;;;2.88;1.70;;;24.20;72.50;;;;;;4954592;28;95894;-42
2022/03/01 08:57:02;;;;;;;4.00;1.92;;;24.10;73.10;;;;;;4951621;28;96619;-42
2022/03/01 08:59:35;;;;;;;6.88;2.20;;;24.20;72.80;;;;;;4950385;28;96454;-43
2022/03/01 09:02:05;;;;;;;5.97;2.15;;;24.20;72.90;;;;;;4931769;28;95814;-39
2022/03/01 09:04:38;;;;;;;7.88;2.80;;;24.20;72.90;;;;;;4934048;28;96174;-42
2022/03/01 09:07:08;;;;;;;7.47;2.08;;;24.20;73.20;;;;;;4949412;28;96372;-39
2022/03/01 09:09:39;;;;;;;8.07;2.60;;;24.20;73.30;;;;;;4934271;28;96020;-41
2022/03/01 09:12:10;;;;;;;8.43;2.58;;;24.30;73.80;;;;;;4934357;28;95888;-42
2022/03/01 09:14:41;;;;;;;8.02;2.63;;;24.20;73.60;;;;;;4936380;28;95839;-41
2022/03/01 09:17:12;;;;;;;6.50;2.40;;;24.20;73.80;;;;;;4944953;28;97885;-43
2022/03/01 09:19:43;;;;;;;;;;;24.20;73.30;;;;;;4957476;28;95688;-42
2022/03/01 09:22:14;;;;;;;7.20;2.33;;;24.40;73.30;;;;;;4957498;28;95860;-42
2022/03/01 09:24:46;;;;;;;4.80;2.10;;;24.40;73.50;;;;;;4956934;28;95790;-42
2022/03/01 09:27:17;;;;;;;6.63;2.47;;;24.40;73.10;;;;;;4957782;28;96532;-42
2022/03/01 09:29:48;;;;;;;6.20;2.40;;;24.30;73.00;;;;;;4954233;28;95990;-41
2022/03/01 09:32:19;;;;;;;5.38;1.80;;;24.30;73.10;;;;;;4963593;28;96859;-42
2022/03/01 09:34:50;;;;;;;9.30;2.22;;;24.30;73.20;;;;;;4956111;28;95374;-40
2022/03/01 09:37:21;;;;;;;6.13;2.10;;;24.30;73.40;;;;;;4954585;28;95964;-41
2022/03/01 09:39:52;;;;;;;6.85;2.45;;;24.20;73.40;;;;;;4949844;28;98264;-42
2022/03/01 09:42:26;;;;;;;7.13;2.30;;;24.20;73.40;;;;;;4933560;28;96723;-40
2022/03/01 09:44:59;;;;;;;8.23;2.25;;;24.20;73.70;;;;;;4954426;28;98132;-40
2022/03/01 09:47:31;;;;;;;9.98;2.63;;;24.20;73.70;;;;;;4933486;28;97382;-41
2022/03/01 09:50:04;;;;;;;7.53;2.08;;;24.20;73.90;;;;;;4932675;28;96913;-41
2022/03/01 09:52:38;;;;;;;7.07;2.30;;;24.20;74.00;;;;;;4935539;28;95662;-42
2022/03/01 09:55:10;;;;;;;8.77;2.58;;;24.20;74.10;;;;;;4934335;28;95888;-42
2022/03/01 09:57:40;;;;;;;7.05;2.30;;;24.10;74.20;;;;;;4930773;28;96588;-43
2022/03/01 10:00:12;;;;;;;;;;;24.10;74.30;;;;;;4932536;28;95740;-42
2022/03/01 10:02:44;;;;;;;4.28;2.30;;;24.10;74.00;;;;;;4929287;28;95401;-42
2022/03/01 10:05:15;;;;;;;4.20;1.67;;;24.10;73.00;;;;;;4932889;28;96518;-43
2022/03/01 10:07:48;;;;;;;3.55;1.80;;;24.00;71.50;;;;;;4931700;28;96998;-43
2022/03/01 10:10:19;;;;;;;5.18;2.47;;;23.90;70.60;;;;;;4933473;28;95750;-42
2022/03/01 10:12:56;;;;;;;6.57;2.15;;;23.80;69.60;;;;;;4931050;28;95758;-42
2022/03/01 10:15:28;;;;;;;5.25;2.28;;;23.70;69.10;;;;;;4927982;28;95819;-43
2022/03/01 10:18:09;;;;;;;6.25;1.88;;;23.60;67.90;;;;;;4930058;28;96173;-42
2022/03/01 10:20:44;;;;;;;5.38;1.60;;;23.60;67.90;;;;;;4931174;28;95331;-42
2022/03/01 10:23:23;;;;;;;4.43;1.55;;;23.60;68.20;;;;;;4931191;28;95906;-42
2022/03/01 10:25:54;;;;;;;5.15;1.70;;;23.60;68.80;;;;;;4931979;28;95936;-43
2022/03/01 10:28:36;;;;;;;4.88;1.83;;;23.60;69.30;;;;;;4931487;28;96503;-42
2022/03/01 10:31:13;;;;;;;5.65;2.13;;;23.60;69.20;;;;;;4933652;28;95874;-42
2022/03/01 10:34:10;;;;;;;3.28;2.08;;;23.60;65.90;;;;;;4950611;28;95776;-43
2022/03/01 10:36:47;;;;;;;5.85;2.10;;;23.60;69.50;;;;;;4951489;28;95740;-42
2022/03/01 10:39:30;;;;;;;4.78;2.55;;;23.50;69.60;;;;;;4941599;28;97193;-42
2022/03/01 10:42:05;;;;;;;3.17;1.70;;;23.60;69.80;;;;;;4926535;28;97194;-41
2022/03/01 10:44:36;;;;;;;6.25;2.03;;;23.70;69.70;;;;;;4951464;28;95835;-42
2022/03/01 10:47:06;;;;;;;5.00;2.28;;;23.70;69.60;;;;;;4932369;28;96100;-42
2022/03/01 10:49:37;;;;;;;6.00;2.05;;;23.70;69.70;;;;;;4933814;28;97329;-44
2022/03/01 10:52:14;;;;;;;8.73;2.15;;;23.80;69.80;;;;;;4934019;28;95622;-41
2022/03/01 10:54:45;;;;;;;4.70;2.10;;;23.80;69.70;;;;;;4933139;28;95832;-44
2022/03/01 10:57:24;;;;;;;5.47;2.17;;;23.80;70.00;;;;;;4933607;28;96380;-44
2022/03/01 10:59:55;;;;;;;3.67;2.10;;;23.70;69.80;;;;;;4934369;28;96380;-42
2022/03/01 11:02:27;;;;;;;;;;;23.80;70.00;;;;;;4942453;28;97419;-44
2022/03/01 11:04:57;;;;;;;5.82;2.03;;;23.80;69.90;;;;;;4956057;28;95757;-42
2022/03/01 11:07:35;;;;;;;5.97;2.28;;;23.70;69.90;;;;;;4951829;28;95865;-38
2022/03/01 11:10:06;;;;;;;5.28;1.83;;;23.80;69.90;;;;;;4951148;28;95877;-42
2022/03/01 11:12:38;;;;;;;5.63;1.88;;;23.80;69.70;;;;;;4949266;28;95865;-42
2022/03/01 11:15:46;;;;;;;6.55;1.95;;;23.70;69.50;;;;;;4951123;28;96055;-39
2022/03/01 11:18:42;;;;;;;4.63;2.15;;;23.80;69.50;;;;;;4950107;28;95931;-40
2022/03/01 11:21:20;;;;;;;4.03;1.50;;;23.80;69.50;;;;;;4947503;28;96339;-43
2022/03/01 11:23:54;;;;;;;4.38;1.60;;;23.70;69.30;;;;;;4947839;28;95928;-41
2022/03/01 11:26:37;;;;;;;4.03;1.50;;;23.70;69.20;;;;;;4947585;28;95889;-43
2022/03/01 11:29:12;;;;;;;4.57;1.80;;;23.80;69.20;;;;;;4948401;28;96092;-42
2022/03/01 11:31:56;;;;;;;5.55;1.90;;;23.70;69.10;;;;;;4940192;28;96562;-41
2022/03/01 11:34:28;;;;;;;4.75;1.75;;;23.70;69.10;;;;;;4947981;28;96268;-42
2022/03/01 11:37:02;;;;;;;4.07;1.85;;;23.70;69.10;;;;;;4949879;28;95775;-43
2022/03/01 11:39:35;;;;;;;4.95;1.95;;;23.70;69.00;;;;;;4949812;28;95875;-44
2022/03/01 11:42:17;;;;;;;3.22;1.55;;;23.70;69.10;;;;;;4934709;28;96869;-43
2022/03/01 11:44:54;;;;;;;2.85;1.73;;;23.70;69.20;;;;;;4951293;28;95852;-43
2022/03/01 11:47:29;;;;;;;5.95;2.00;;;23.70;68.60;;;;;;4947863;28;96483;-39
2022/03/01 11:50:23;;;;;;;5.55;2.25;;;23.70;68.30;;;;;;4958221;28;95989;-43
2022/03/01 11:53:05;;;;;;;7.07;2.25;;;23.80;68.20;;;;;;4956355;28;95943;-43
2022/03/01 11:55:41;;;;;;;6.78;2.08;;;23.80;68.20;;;;;;4956528;28;95946;-39
2022/03/01 11:58:14;;;;;;;5.32;1.58;;;23.80;67.90;;;;;;4956956;28;95856;-43
2022/03/01 12:00:48;;;;;;;3.97;1.77;;;23.80;67.60;;;;;;4952797;28;95972;-44
2022/03/01 12:03:27;;;;;;;6.10;2.15;;;23.90;67.60;;;;;;4952205;28;96755;-44
2022/03/01 12:05:58;;;;;;;3.67;1.77;;;23.80;67.30;;;;;;4957029;28;97183;-41
2022/03/01 12:08:31;;;;;;;5.43;2.25;;;23.90;67.40;;;;;;4955696;28;95820;-41
2022/03/01 12:11:08;;;;;;;4.88;2.15;;;23.90;67.00;;;;;;4956422;28;95829;-43
2022/03/01 12:13:41;;;;;;;3.67;1.73;;;23.80;67.00;;;;;;4955092;28;97741;-42
2022/03/01 12:16:32;;;;;;;4.10;1.70;;;23.70;67.70;;;;;;4947403;28;95914;-43
2022/03/01 12:19:10;;;;;;;2.22;1.38;;;23.80;67.50;;;;;;4953184;28;95385;-43
2022/03/01 12:21:46;;;;;;;3.13;1.30;;;23.90;67.60;;;;;;4954530;28;96135;-41
2022/03/01 12:24:18;;;;;;;8.65;2.60;;;23.90;67.50;;;;;;4954388;28;96621;-43
2022/03/01 12:27:00;;;;;;;6.32;2.03;;;24.00;68.30;;;;;;4954207;28;96122;-43
2022/03/01 12:29:40;;;;;;;5.05;1.88;;;24.00;68.80;;;;;;4955277;28;96442;-42
2022/03/01 12:32:12;;;;;;;6.82;1.60;;;24.00;69.80;;;;;;4950769;28;97040;-43
2022/03/01 12:34:43;;;;;;;4.93;1.98;;;24.10;69.00;;;;;;4953445;28;97603;-40
2022/03/01 12:37:14;;;;;;;6.50;1.90;;;24.10;68.90;;;;;;4952343;28;95716;-43
2022/03/01 12:39:46;;;;;;;5.15;1.90;;;24.10;69.30;;;;;;4950057;28;95985;-41
2022/03/01 12:42:21;;;;;;;3.65;1.45;;;24.10;69.80;;;;;;4934558;28;95981;-42
2022/03/01 12:44:53;;;;;;;7.10;2.08;;;24.10;70.10;;;;;;4955443;28;96733;-42
2022/03/01 12:47:24;;;;;;;5.50;1.67;;;24.10;69.50;;;;;;4943868;28;95901;-43
2022/03/01 12:49:55;;;;;;;3.90;1.90;;;24.00;68.30;;;;;;4952921;28;95820;-42
2022/03/01 12:52:26;;;;;;;5.55;1.70;;;24.00;68.50;;;;;;4952030;28;96460;-43
2022/03/01 12:54:56;;;;;;;3.93;1.10;;;24.00;68.10;;;;;;4952099;28;96832;-47
2022/03/01 12:57:36;;;;;;;3.42;1.50;;;24.00;68.20;;;;;;4953707;28;95916;-43
2022/03/01 13:00:14;;;;;;;2.33;1.48;;;24.00;68.00;;;;;;4944759;28;96828;-40
2022/03/01 13:02:56;;;;;;;5.00;2.25;;;24.00;68.30;;;;;;4952979;28;96174;-43
2022/03/01 13:05:28;;;;;;;3.97;1.65;;;23.90;67.40;;;;;;4954899;28;96021;-42
2022/03/01 13:07:58;;;;;;;5.22;1.73;;;23.80;68.90;;;;;;4952202;28;95620;-41
2022/03/01 13:10:35;;;;;;;3.83;1.42;;;23.80;67.80;;;;;;4950270;28;95865;-41
2022/03/01 13:13:08;;;;;;;3.75;1.50;;;23.70;67.60;;;;;;4953960;28;95854;-38
2022/03/01 13:15:46;;;;;;;4.40;1.95;;;23.70;67.70;;;;;;4949252;28;96454;-44
2022/03/01 13:18:27;;;;;;;5.20;1.98;;;23.70;67.70;;;;;;4954011;28;95900;-43
2022/03/01 13:20:57;;;;;;;3.10;1.20;;;23.70;67.40;;;;;;4953716;28;96063;-42